createdAt,value
2018-09-08T00:00:22.439Z,11.02
2018-09-08T00:01:22.410Z,11.12
2018-09-08T00:02:22.395Z,11.05
2018-09-08T00:03:22.391Z,11.08
2018-09-08T00:04:22.385Z,11.11
2018-09-08T00:05:22.385Z,11.23
2018-09-08T00:06:22.359Z,11.29
2018-09-08T00:07:22.342Z,11.19
2018-09-08T00:08:22.334Z,11.22
2018-09-08T00:09:22.322Z,11.23
2018-09-08T00:10:22.326Z,11.30
2018-09-08T00:11:22.308Z,11.40
2018-09-08T00:12:22.293Z,11.41
2018-09-08T00:13:22.282Z,11.52
2018-09-08T00:14:22.276Z,11.70
2018-09-08T00:15:22.273Z,11.73
2018-09-08T00:16:22.247Z,11.68
2018-09-08T00:17:22.238Z,11.65
2018-09-08T00:18:22.234Z,11.70
2018-09-08T00:19:22.215Z,11.73
2018-09-08T00:20:22.224Z,11.69
2018-09-08T00:21:22.198Z,11.73
2018-09-08T00:22:22.180Z,11.80
2018-09-08T00:23:22.236Z,11.83
2018-09-08T00:24:22.164Z,11.87
2018-09-08T00:25:22.170Z,11.78
2018-09-08T00:26:22.146Z,11.73
2018-09-08T00:27:22.125Z,11.78
2018-09-08T00:28:22.117Z,11.80
2018-09-08T00:29:22.106Z,11.78
2018-09-08T00:30:22.111Z,11.69
2018-09-08T00:31:22.090Z,11.69
2018-09-08T00:32:22.076Z,11.69
2018-09-08T00:33:22.063Z,11.86
2018-09-08T00:34:22.050Z,11.78
2018-09-08T00:35:22.074Z,11.75
2018-09-08T00:36:22.040Z,11.70
2018-09-08T00:37:22.023Z,11.69
2018-09-08T00:38:22.048Z,11.86
2018-09-08T00:39:21.996Z,11.84
2018-09-08T00:40:22.008Z,11.84
2018-09-08T00:41:21.978Z,11.78
2018-09-08T00:42:21.964Z,11.70
2018-09-08T00:43:21.960Z,11.72
2018-09-08T00:44:21.946Z,11.75
2018-09-08T00:45:21.954Z,11.63
2018-09-08T00:46:21.938Z,11.55
2018-09-08T00:47:21.910Z,11.52
2018-09-08T00:48:21.902Z,11.59
2018-09-08T00:49:21.894Z,11.68
2018-09-08T00:50:21.901Z,11.68
2018-09-08T00:51:21.866Z,11.65
2018-09-08T00:52:21.857Z,11.65
2018-09-08T00:53:21.850Z,11.52
2018-09-08T00:54:21.834Z,11.52
2018-09-08T00:55:21.852Z,11.63
2018-09-08T00:56:21.817Z,11.65
2018-09-08T00:57:21.807Z,11.66
2018-09-08T00:58:21.798Z,11.63
2018-09-08T00:59:21.781Z,11.69
2018-09-08T01:00:21.788Z,11.69
2018-09-08T01:01:21.760Z,11.75
2018-09-08T01:02:21.747Z,11.70
2018-09-08T01:03:21.744Z,11.73
2018-09-08T01:04:21.732Z,11.59
2018-09-08T01:05:21.720Z,11.57
2018-09-08T01:06:21.722Z,11.52
2018-09-08T01:07:21.702Z,11.60
2018-09-08T01:08:21.687Z,11.50
2018-09-08T01:09:21.678Z,11.41
2018-09-08T01:10:21.668Z,11.40
2018-09-08T01:11:21.669Z,11.41
2018-09-08T01:12:21.642Z,11.37
2018-09-08T01:13:21.631Z,11.40
2018-09-08T01:14:21.622Z,11.43
2018-09-08T01:15:21.614Z,11.36
2018-09-08T01:16:21.619Z,11.44
2018-09-08T01:17:21.590Z,11.36
2018-09-08T01:18:21.583Z,11.26
2018-09-08T01:19:21.564Z,11.36
2018-09-08T01:20:21.565Z,11.32
2018-09-08T01:21:21.565Z,11.30
2018-09-08T01:22:21.543Z,11.36
2018-09-08T01:23:21.547Z,11.35
2018-09-08T01:24:21.511Z,11.40
2018-09-08T01:25:21.501Z,11.26
2018-09-08T01:26:21.505Z,11.23
2018-09-08T01:27:21.494Z,11.23
2018-09-08T01:28:21.473Z,11.25
2018-09-08T01:29:21.461Z,11.19
2018-09-08T01:30:21.453Z,11.22
2018-09-08T01:31:21.456Z,11.26
2018-09-08T01:32:21.427Z,11.25
2018-09-08T01:33:21.414Z,11.23
2018-09-08T01:34:21.402Z,11.33
2018-09-08T01:35:21.412Z,11.29
2018-09-08T01:36:21.403Z,11.27
2018-09-08T01:37:21.378Z,11.26
2018-09-08T01:38:21.383Z,11.27
2018-09-08T01:39:21.348Z,11.26
2018-09-08T01:40:21.339Z,11.29
2018-09-08T01:41:21.329Z,11.26
2018-09-08T01:42:21.317Z,11.30
2018-09-08T01:43:21.329Z,11.27
2018-09-08T01:44:21.299Z,11.25
2018-09-08T01:45:21.289Z,11.27
2018-09-08T01:46:21.280Z,11.26
2018-09-08T01:47:21.263Z,11.43
2018-09-08T01:48:21.280Z,11.44
2018-09-08T01:49:21.244Z,11.45
2018-09-08T01:50:21.230Z,11.36
2018-09-08T01:51:21.226Z,11.27
2018-09-08T01:52:21.213Z,11.25
2018-09-08T01:53:21.199Z,11.29
2018-09-08T01:54:21.209Z,11.37
2018-09-08T01:55:21.184Z,11.33
2018-09-08T01:56:21.170Z,11.33
2018-09-08T01:57:21.159Z,11.41
2018-09-08T01:58:21.153Z,11.32
2018-09-08T01:59:21.157Z,11.36
2018-09-08T02:00:21.129Z,11.27
2018-09-08T02:01:21.114Z,11.17
2018-09-08T02:02:21.101Z,11.19
2018-09-08T02:03:21.097Z,11.11
2018-09-08T02:04:21.085Z,11.04
2018-09-08T02:05:21.092Z,11.05
2018-09-08T02:06:21.065Z,10.96
2018-09-08T02:07:21.048Z,11.02
2018-09-08T02:08:21.038Z,11.02
2018-09-08T02:09:21.032Z,10.94
2018-09-08T02:10:21.040Z,10.89
2018-09-08T02:11:21.005Z,10.82
2018-09-08T02:12:20.995Z,10.69
2018-09-08T02:13:20.998Z,10.72
2018-09-08T02:14:20.974Z,10.79
2018-09-08T02:15:20.986Z,10.78
2018-09-08T02:16:20.955Z,10.81
2018-09-08T02:17:20.946Z,10.79
2018-09-08T02:18:20.936Z,10.75
2018-09-08T02:19:20.920Z,10.79
2018-09-08T02:20:20.931Z,10.87
2018-09-08T02:21:20.901Z,10.76
2018-09-08T02:22:20.891Z,10.86
2018-09-08T02:23:20.881Z,10.92
2018-09-08T02:24:20.869Z,10.90
2018-09-08T02:25:20.931Z,10.89
2018-09-08T02:26:20.847Z,10.90
2018-09-08T02:27:20.839Z,10.96
2018-09-08T02:28:20.835Z,11.05
2018-09-08T02:29:20.815Z,11.05
2018-09-08T02:30:20.830Z,11.04
2018-09-08T02:31:20.789Z,11.02
2018-09-08T02:32:20.779Z,10.99
2018-09-08T02:33:20.770Z,11.07
2018-09-08T02:34:20.758Z,10.94
2018-09-08T02:35:20.754Z,11.07
2018-09-08T02:36:20.756Z,11.02
2018-09-08T02:37:20.732Z,10.89
2018-09-08T02:38:20.722Z,11.04
2018-09-08T02:39:20.710Z,11.02
2018-09-08T02:40:20.694Z,10.96
2018-09-08T02:41:20.702Z,11.05
2018-09-08T02:42:20.703Z,11.18
2018-09-08T02:43:20.660Z,11.12
2018-09-08T02:44:20.654Z,11.00
2018-09-08T02:45:20.641Z,11.10
2018-09-08T02:46:20.648Z,11.08
2018-09-08T02:47:20.624Z,11.04
2018-09-08T02:48:20.611Z,11.17
2018-09-08T02:49:20.600Z,11.04
2018-09-08T02:50:20.593Z,11.04
2018-09-08T02:51:20.599Z,11.08
2018-09-08T02:52:20.565Z,10.99
2018-09-08T02:53:20.556Z,11.04
2018-09-08T02:54:20.543Z,11.18
2018-09-08T02:55:20.537Z,11.12
2018-09-08T02:56:20.524Z,11.12
2018-09-08T02:57:20.531Z,11.19
2018-09-08T02:58:20.499Z,11.29
2018-09-08T02:59:20.497Z,11.27
2018-09-08T03:00:20.485Z,11.27
2018-09-08T03:01:20.470Z,11.18
2018-09-08T03:02:20.488Z,11.25
2018-09-08T03:03:20.444Z,11.18
2018-09-08T03:04:20.439Z,11.18
2018-09-08T03:05:20.428Z,11.17
2018-09-08T03:06:20.412Z,11.14
2018-09-08T03:07:20.409Z,11.14
2018-09-08T03:08:20.413Z,11.11
2018-09-08T03:09:20.386Z,11.05
2018-09-08T03:10:20.374Z,11.11
2018-09-08T03:11:20.357Z,11.04
2018-09-08T03:12:20.351Z,11.08
2018-09-08T03:13:20.360Z,11.02
2018-09-08T03:14:20.332Z,11.04
2018-09-08T03:15:20.314Z,11.02
2018-09-08T03:16:20.307Z,10.87
2018-09-08T03:17:20.296Z,10.94
2018-09-08T03:18:20.305Z,11.07
2018-09-08T03:19:20.279Z,11.08
2018-09-08T03:20:20.267Z,11.07
2018-09-08T03:21:20.253Z,11.14
2018-09-08T03:22:20.245Z,11.02
2018-09-08T03:23:20.227Z,10.92
2018-09-08T03:24:20.236Z,10.84
2018-09-08T03:25:20.208Z,10.82
2018-09-08T03:26:20.195Z,10.79
2018-09-08T03:27:20.191Z,10.87
2018-09-08T03:28:20.180Z,10.94
2018-09-08T03:29:20.197Z,11.05
2018-09-08T03:30:20.155Z,10.96
2018-09-08T03:31:20.148Z,11.02
2018-09-08T03:32:20.135Z,11.07
2018-09-08T03:33:20.134Z,11.05
2018-09-08T03:34:20.120Z,11.04
2018-09-08T03:35:20.114Z,11.07
2018-09-08T03:36:20.090Z,11.04
2018-09-08T03:37:20.078Z,11.11
2018-09-08T03:38:20.066Z,11.18
2018-09-08T03:39:20.061Z,11.12
2018-09-08T03:40:20.066Z,11.17
2018-09-08T03:41:20.041Z,11.00
2018-09-08T03:42:20.028Z,11.08
2018-09-08T03:43:20.011Z,11.07
2018-09-08T03:44:20.002Z,10.99
2018-09-08T03:45:20.018Z,11.02
2018-09-08T03:46:19.986Z,11.02
2018-09-08T03:47:19.968Z,10.94
2018-09-08T03:48:19.959Z,10.96
2018-09-08T03:49:19.948Z,10.86
2018-09-08T03:50:19.960Z,10.87
2018-09-08T03:51:19.932Z,10.90
2018-09-08T03:52:19.918Z,10.90
2018-09-08T03:53:19.911Z,10.76
2018-09-08T03:54:19.899Z,10.76
2018-09-08T03:55:19.881Z,10.75
2018-09-08T03:56:19.891Z,10.74
2018-09-08T03:57:19.860Z,10.74
2018-09-08T03:58:19.849Z,10.69
2018-09-08T03:59:19.845Z,10.69
2018-09-08T04:00:19.832Z,10.68
2018-09-08T04:01:19.821Z,10.76
2018-09-08T04:02:19.824Z,10.69
2018-09-08T04:03:19.802Z,10.72
2018-09-08T04:04:19.791Z,10.74
2018-09-08T04:05:19.778Z,10.82
2018-09-08T04:06:19.794Z,10.76
2018-09-08T04:07:19.756Z,10.79
2018-09-08T04:08:19.744Z,10.74
2018-09-08T04:09:19.735Z,10.87
2018-09-08T04:10:19.729Z,10.81
2018-09-08T04:11:19.790Z,10.93
2018-09-08T04:12:19.717Z,10.79
2018-09-08T04:13:19.689Z,10.76
2018-09-08T04:14:19.676Z,10.78
2018-09-08T04:15:19.683Z,10.71
2018-09-08T04:16:19.660Z,10.72
2018-09-08T04:17:19.663Z,10.63
2018-09-08T04:18:19.634Z,10.71
2018-09-08T04:19:19.629Z,10.69
2018-09-08T04:20:19.616Z,10.61
2018-09-08T04:21:19.606Z,10.64
2018-09-08T04:22:19.621Z,10.61
2018-09-08T04:23:19.580Z,10.49
2018-09-08T04:24:19.568Z,10.46
2018-09-08T04:25:19.560Z,10.56
2018-09-08T04:26:19.547Z,10.48
2018-09-08T04:27:19.543Z,10.49
2018-09-08T04:28:19.549Z,10.60
2018-09-08T04:29:19.539Z,10.49
2018-09-08T04:30:19.511Z,10.64
2018-09-08T04:31:19.497Z,10.63
2018-09-08T04:32:19.485Z,10.67
2018-09-08T04:33:19.503Z,10.57
2018-09-08T04:34:19.467Z,10.56
2018-09-08T04:35:19.451Z,10.48
2018-09-08T04:36:19.443Z,10.53
2018-09-08T04:37:19.433Z,10.51
2018-09-08T04:38:19.417Z,10.64
2018-09-08T04:39:19.432Z,10.63
2018-09-08T04:40:19.401Z,10.63
2018-09-08T04:41:19.391Z,10.61
2018-09-08T04:42:19.381Z,10.59
2018-09-08T04:43:19.365Z,10.60
2018-09-08T04:44:19.375Z,10.59
2018-09-08T04:45:19.344Z,10.60
2018-09-08T04:46:19.334Z,10.60
2018-09-08T04:47:19.329Z,10.54
2018-09-08T04:48:19.314Z,10.54
2018-09-08T04:49:19.371Z,10.60
2018-09-08T04:50:19.289Z,10.67
2018-09-08T04:51:19.293Z,10.74
2018-09-08T04:52:19.293Z,10.71
2018-09-08T04:53:19.260Z,10.74
2018-09-08T04:54:19.853Z,10.76
2018-09-08T04:55:19.252Z,10.72
2018-09-08T04:56:19.225Z,10.64
2018-09-08T04:57:19.217Z,10.68
2018-09-08T04:58:19.201Z,10.64
2018-09-08T04:59:19.197Z,10.59
2018-09-08T05:00:19.213Z,10.67
2018-09-08T05:01:19.174Z,10.54
2018-09-08T05:02:19.200Z,10.54
2018-09-08T05:03:19.148Z,10.51
2018-09-08T05:04:19.140Z,10.46
2018-09-08T05:05:19.134Z,10.38
2018-09-08T05:06:19.141Z,10.41
2018-09-08T05:07:19.114Z,10.49
2018-09-08T05:08:19.100Z,10.57
2018-09-08T05:09:19.087Z,10.48
2018-09-08T05:10:19.100Z,10.54
2018-09-08T05:11:19.102Z,10.49
2018-09-08T05:12:19.055Z,10.48
2018-09-08T05:13:19.049Z,10.51
2018-09-08T05:14:19.115Z,10.48
2018-09-08T05:15:19.024Z,10.46
2018-09-08T05:16:19.037Z,10.49
2018-09-08T05:17:19.069Z,10.48
2018-09-08T05:18:18.985Z,10.59
2018-09-08T05:19:18.982Z,10.53
2018-09-08T05:20:18.969Z,10.44
2018-09-08T05:21:18.956Z,10.48
2018-09-08T05:22:18.991Z,10.48
2018-09-08T05:23:18.963Z,10.46
2018-09-08T05:24:18.938Z,10.57
2018-09-08T05:25:18.921Z,10.44
2018-09-08T05:26:18.906Z,10.37
2018-09-08T05:27:18.914Z,10.51
2018-09-08T05:28:18.883Z,10.40
2018-09-08T05:29:18.871Z,10.46
2018-09-08T05:30:18.858Z,10.51
2018-09-08T05:31:18.857Z,10.49
2018-09-08T05:32:18.864Z,10.54
2018-09-08T05:33:18.832Z,10.57
2018-09-08T05:34:18.824Z,10.61
2018-09-08T05:35:18.835Z,10.63
2018-09-08T05:36:18.799Z,10.63
2018-09-08T05:37:18.814Z,10.72
2018-09-08T05:38:18.778Z,10.71
2018-09-08T05:39:18.763Z,10.72
2018-09-08T05:40:18.752Z,10.76
2018-09-08T05:41:18.740Z,10.84
2018-09-08T05:42:18.728Z,10.81
2018-09-08T05:43:18.742Z,10.84
2018-09-08T05:44:18.715Z,10.84
2018-09-08T05:45:18.700Z,10.89
2018-09-08T05:46:18.691Z,10.94
2018-09-08T05:47:18.700Z,11.02
2018-09-08T05:48:18.668Z,11.04
2018-09-08T05:49:18.655Z,11.11
2018-09-08T05:50:18.647Z,11.18
2018-09-08T05:51:18.638Z,11.08
2018-09-08T05:52:18.626Z,11.11
2018-09-08T05:53:18.656Z,11.10
2018-09-08T05:54:18.599Z,11.22
2018-09-08T05:55:18.621Z,11.14
2018-09-08T05:56:18.631Z,11.22
2018-09-08T05:57:18.571Z,11.18
2018-09-08T05:58:18.594Z,11.26
2018-09-08T05:59:18.547Z,11.33
2018-09-08T06:00:18.536Z,11.35
2018-09-08T06:01:18.525Z,11.45
2018-09-08T06:02:18.525Z,11.41
2018-09-08T06:03:18.512Z,11.47
2018-09-08T06:04:18.514Z,11.43
2018-09-08T06:05:18.484Z,11.47
2018-09-08T06:06:18.476Z,11.43
2018-09-08T06:07:18.461Z,11.47
2018-09-08T06:08:18.452Z,11.41
2018-09-08T06:09:18.487Z,11.47
2018-09-08T06:10:18.526Z,11.41
2018-09-08T06:11:18.416Z,11.50
2018-09-08T06:12:18.405Z,11.57
2018-09-08T06:13:18.394Z,11.60
2018-09-08T06:14:18.398Z,11.68
2018-09-08T06:15:18.377Z,11.68
2018-09-08T06:16:18.381Z,11.66
2018-09-08T06:17:18.383Z,11.77
2018-09-08T06:18:18.486Z,11.78
2018-09-08T06:19:18.344Z,11.86
2018-09-08T06:20:18.318Z,11.90
2018-09-08T06:21:18.312Z,11.87
2018-09-08T06:22:18.298Z,11.86
2018-09-08T06:23:18.290Z,12.02
2018-09-08T06:24:18.321Z,11.95
2018-09-08T06:25:18.264Z,11.97
2018-09-08T06:26:18.252Z,12.07
2018-09-08T06:27:18.247Z,12.18
2018-09-08T06:28:18.238Z,12.13
2018-09-08T06:29:18.226Z,12.18
2018-09-08T06:30:18.238Z,12.24
2018-09-08T06:31:18.201Z,12.22
2018-09-08T06:32:18.189Z,12.35
2018-09-08T06:33:18.196Z,12.27
2018-09-08T06:34:18.165Z,12.31
2018-09-08T06:35:18.228Z,12.36
2018-09-08T06:36:18.177Z,12.40
2018-09-08T06:37:18.148Z,12.46
2018-09-08T06:38:18.186Z,12.54
2018-09-08T06:39:18.111Z,12.50
2018-09-08T06:40:18.101Z,12.49
2018-09-08T06:41:18.117Z,12.49
2018-09-08T06:42:18.084Z,12.47
2018-09-08T06:43:18.069Z,12.50
2018-09-08T06:44:18.080Z,12.60
2018-09-08T06:45:18.064Z,12.61
2018-09-08T06:46:18.054Z,12.61
2018-09-08T06:47:18.033Z,12.67
2018-09-08T06:48:18.020Z,12.72
2018-09-08T06:49:18.009Z,12.62
2018-09-08T06:50:18.008Z,12.65
2018-09-08T06:51:18.011Z,12.62
2018-09-08T06:52:18.013Z,12.70
2018-09-08T06:53:17.962Z,12.65
2018-09-08T06:54:17.949Z,12.67
2018-09-08T06:55:17.949Z,12.73
2018-09-08T06:56:17.935Z,12.80
2018-09-08T06:57:17.943Z,12.67
2018-09-08T06:58:17.916Z,12.85
2018-09-08T06:59:17.907Z,12.82
2018-09-08T07:00:17.890Z,12.83
2018-09-08T07:01:17.877Z,12.86
2018-09-08T07:02:17.887Z,12.91
2018-09-08T07:03:17.859Z,13.01
2018-09-08T07:04:17.847Z,13.05
2018-09-08T07:05:17.832Z,13.05
2018-09-08T07:06:17.820Z,13.11
2018-09-08T07:07:17.833Z,13.11
2018-09-08T07:08:17.805Z,13.20
2018-09-08T07:09:17.795Z,13.18
2018-09-08T07:10:17.783Z,13.20
2018-09-08T07:11:17.765Z,13.18
2018-09-08T07:12:17.781Z,13.25
2018-09-08T07:13:17.750Z,13.25
2018-09-08T07:14:17.740Z,13.41
2018-09-08T07:15:17.821Z,13.46
2018-09-08T07:16:17.712Z,13.54
2018-09-08T07:17:17.702Z,13.56
2018-09-08T07:18:17.709Z,13.62
2018-09-08T07:19:17.693Z,13.67
2018-09-08T07:20:17.674Z,13.63
2018-09-08T07:21:17.661Z,13.67
2018-09-08T07:22:17.655Z,13.71
2018-09-08T07:23:17.660Z,13.77
2018-09-08T07:24:17.629Z,13.71
2018-09-08T07:25:17.618Z,13.85
2018-09-08T07:26:17.606Z,13.81
2018-09-08T07:27:17.748Z,13.77
2018-09-08T07:28:18.055Z,13.81
2018-09-08T07:29:17.735Z,13.85
2018-09-08T07:30:17.567Z,13.86
2018-09-08T07:31:17.591Z,13.92
2018-09-08T07:32:17.541Z,13.92
2018-09-08T07:33:17.530Z,13.97
2018-09-08T07:34:17.547Z,13.97
2018-09-08T07:35:17.506Z,14.03
2018-09-08T07:36:17.505Z,14.08
2018-09-08T07:37:17.486Z,14.08
2018-09-08T07:38:17.471Z,14.08
2018-09-08T07:39:17.513Z,14.22
2018-09-08T07:40:17.467Z,14.26
2018-09-08T07:41:17.443Z,14.20
2018-09-08T07:42:17.441Z,14.23
2018-09-08T07:43:17.417Z,14.25
2018-09-08T07:44:17.412Z,14.32
2018-09-08T07:45:17.416Z,14.33
2018-09-08T07:46:17.395Z,14.37
2018-09-08T07:47:17.375Z,14.45
2018-09-08T07:48:17.365Z,14.54
2018-09-08T07:49:17.354Z,14.62
2018-09-08T07:50:17.368Z,14.53
2018-09-08T07:51:17.336Z,14.66
2018-09-08T07:52:17.323Z,14.79
2018-09-08T07:53:17.325Z,14.78
2018-09-08T07:54:17.307Z,14.81
2018-09-08T07:55:17.296Z,14.89
2018-09-08T07:56:17.295Z,14.89
2018-09-08T07:57:17.267Z,14.86
2018-09-08T07:58:17.255Z,14.97
2018-09-08T07:59:17.293Z,15.06
2018-09-08T08:00:17.236Z,15.00
2018-09-08T08:01:17.264Z,15.02
2018-09-08T08:02:17.211Z,14.99
2018-09-08T08:03:17.213Z,15.14
2018-09-08T08:04:17.201Z,15.24
2018-09-08T08:05:17.189Z,15.10
2018-09-08T08:06:17.175Z,14.99
2018-09-08T08:07:17.182Z,15.00
2018-09-08T08:08:17.148Z,15.00
2018-09-08T08:09:17.144Z,14.97
2018-09-08T08:10:17.126Z,15.02
2018-09-08T08:11:17.121Z,15.11
2018-09-08T08:12:17.108Z,15.21
2018-09-08T08:13:17.114Z,15.17
2018-09-08T08:14:17.090Z,15.27
2018-09-08T08:15:17.079Z,15.27
2018-09-08T08:16:17.062Z,15.25
2018-09-08T08:17:17.068Z,15.27
2018-09-08T08:18:17.069Z,15.33
2018-09-08T08:19:17.032Z,15.27
2018-09-08T08:20:17.018Z,15.40
2018-09-08T08:21:17.015Z,15.31
2018-09-08T08:22:17.024Z,15.36
2018-09-08T08:23:17.125Z,15.49
2018-09-08T08:24:16.977Z,15.52
2018-09-08T08:25:16.969Z,15.43
2018-09-08T08:26:16.958Z,15.46
2018-09-08T08:27:16.944Z,15.42
2018-09-08T08:28:16.956Z,15.52
2018-09-08T08:29:16.919Z,15.54
2018-09-08T08:30:16.911Z,15.44
2018-09-08T08:31:16.933Z,15.62
2018-09-08T08:32:16.896Z,15.70
2018-09-08T08:33:16.875Z,15.72
2018-09-08T08:34:16.884Z,15.75
2018-09-08T08:35:16.860Z,15.91
2018-09-08T08:36:16.850Z,16.02
2018-09-08T08:37:16.922Z,16.16
2018-09-08T08:38:16.840Z,16.23
2018-09-08T08:39:16.841Z,16.23
2018-09-08T08:40:16.800Z,16.29
2018-09-08T08:41:16.789Z,16.13
2018-09-08T08:42:16.783Z,16.08
2018-09-08T08:43:16.879Z,16.23
2018-09-08T08:44:16.762Z,16.12
2018-09-08T08:45:16.770Z,16.26
2018-09-08T08:46:16.739Z,16.21
2018-09-08T08:47:16.726Z,16.17
2018-09-08T08:48:16.712Z,16.35
2018-09-08T08:49:16.710Z,16.50
2018-09-08T08:50:16.715Z,16.69
2018-09-08T08:51:16.693Z,16.72
2018-09-08T08:52:16.714Z,16.66
2018-09-08T08:53:16.658Z,16.74
2018-09-08T08:54:16.651Z,16.69
2018-09-08T08:55:16.666Z,16.81
2018-09-08T08:56:16.634Z,16.91
2018-09-08T08:57:16.621Z,16.91
2018-09-08T08:58:16.608Z,16.87
2018-09-08T08:59:16.600Z,16.58
2018-09-08T09:00:16.584Z,16.60
2018-09-08T09:01:16.609Z,16.72
2018-09-08T09:02:16.569Z,16.69
2018-09-08T09:03:16.591Z,16.81
2018-09-08T09:04:16.583Z,16.86
2018-09-08T09:05:16.531Z,16.83
2018-09-08T09:06:16.538Z,16.78
2018-09-08T09:07:16.959Z,16.71
2018-09-08T09:08:16.836Z,16.71
2018-09-08T09:09:16.507Z,16.75
2018-09-08T09:10:16.480Z,16.66
2018-09-08T09:11:16.520Z,16.69
2018-09-08T09:12:16.452Z,16.76
2018-09-08T09:13:16.503Z,16.71
2018-09-08T09:14:16.434Z,16.90
2018-09-08T09:15:16.703Z,16.91
2018-09-08T09:16:16.415Z,16.84
2018-09-08T09:17:16.422Z,17.06
2018-09-08T09:18:16.392Z,17.23
2018-09-08T09:19:16.379Z,17.29
2018-09-08T09:20:16.368Z,17.34
2018-09-08T09:21:16.361Z,17.31
2018-09-08T09:22:16.374Z,17.56
2018-09-08T09:23:16.403Z,17.67
2018-09-08T09:24:16.993Z,17.82
2018-09-08T09:25:16.343Z,17.76
2018-09-08T09:26:16.304Z,17.64
2018-09-08T09:27:16.296Z,17.79
2018-09-08T09:28:16.304Z,18.05
2018-09-08T09:29:16.280Z,18.22
2018-09-08T09:30:16.264Z,18.37
2018-09-08T09:31:16.249Z,18.62
2018-09-08T09:32:16.237Z,18.56
2018-09-08T09:33:16.242Z,18.41
2018-09-08T09:34:16.222Z,18.33
2018-09-08T09:35:16.213Z,18.11
2018-09-08T09:36:16.201Z,17.68
2018-09-08T09:37:16.205Z,17.60
2018-09-08T09:38:16.189Z,17.59
2018-09-08T09:39:16.165Z,17.60
2018-09-08T09:40:16.159Z,17.70
2018-09-08T09:41:16.145Z,17.98
2018-09-08T09:42:16.136Z,17.95
2018-09-08T09:43:16.144Z,18.11
2018-09-08T09:44:16.126Z,18.29
2018-09-08T09:45:16.139Z,18.50
2018-09-08T09:46:16.116Z,18.52
2018-09-08T09:47:16.084Z,18.65
2018-09-08T09:48:16.068Z,18.73
2018-09-08T09:49:16.075Z,18.80
2018-09-08T09:50:16.065Z,18.86
2018-09-08T09:51:16.053Z,18.93
2018-09-08T09:52:16.026Z,19.14
2018-09-08T09:53:16.175Z,19.18
2018-09-08T09:54:16.036Z,19.18
2018-09-08T09:55:15.989Z,19.02
2018-09-08T09:56:15.981Z,19.19
2018-09-08T09:57:15.991Z,19.11
2018-09-08T09:58:15.956Z,19.04
2018-09-08T09:59:15.948Z,18.90
2018-09-08T10:00:15.986Z,18.70
2018-09-08T10:01:15.932Z,18.40
2018-09-08T10:02:15.916Z,18.50
2018-09-08T10:03:15.904Z,18.33
2018-09-08T10:04:15.889Z,18.26
2018-09-08T10:05:15.897Z,18.56
2018-09-08T10:06:15.891Z,18.53
2018-09-08T10:07:15.894Z,18.68
2018-09-08T10:08:15.855Z,18.99
2018-09-08T10:09:15.836Z,19.09
2018-09-08T10:10:15.845Z,19.07
2018-09-08T10:11:15.819Z,19.18
2018-09-08T10:12:15.811Z,19.12
2018-09-08T10:13:15.802Z,19.09
2018-09-08T10:14:15.787Z,19.08
2018-09-08T10:15:15.791Z,19.18
2018-09-08T10:16:15.761Z,19.34
2018-09-08T10:17:15.751Z,19.52
2018-09-08T10:18:15.741Z,19.71
2018-09-08T10:19:15.733Z,19.89
2018-09-08T10:20:15.742Z,20.10
2018-09-08T10:21:15.729Z,20.21
2018-09-08T10:22:15.706Z,20.28
2018-09-08T10:23:15.767Z,20.59
2018-09-08T10:24:15.677Z,20.47
2018-09-08T10:25:15.689Z,20.36
2018-09-08T10:26:15.661Z,20.09
2018-09-08T10:27:15.651Z,19.95
2018-09-08T10:28:15.661Z,19.71
2018-09-08T10:29:15.623Z,19.71
2018-09-08T10:30:15.631Z,19.56
2018-09-08T10:31:15.604Z,19.39
2018-09-08T10:32:16.151Z,19.22
2018-09-08T10:33:15.584Z,19.14
2018-09-08T10:34:15.575Z,19.16
2018-09-08T10:35:15.584Z,19.04
2018-09-08T10:36:15.550Z,19.09
2018-09-08T10:37:15.588Z,19.33
2018-09-08T10:38:15.600Z,19.34
2018-09-08T10:39:15.519Z,19.24
2018-09-08T10:40:15.636Z,19.45
2018-09-08T10:41:15.525Z,19.55
2018-09-08T10:42:15.484Z,19.67
2018-09-08T10:43:15.504Z,19.63
2018-09-08T10:44:15.482Z,19.71
2018-09-08T10:45:15.459Z,19.51
2018-09-08T10:46:15.466Z,19.21
2018-09-08T10:47:15.431Z,19.24
2018-09-08T10:48:15.440Z,19.19
2018-09-08T10:49:15.440Z,19.30
2018-09-08T10:50:15.397Z,19.54
2018-09-08T10:51:15.389Z,19.66
2018-09-08T10:52:15.397Z,19.81
2018-09-08T10:53:15.372Z,19.85
2018-09-08T10:54:15.359Z,19.85
2018-09-08T10:55:15.350Z,19.81
2018-09-08T10:56:15.330Z,19.94
2018-09-08T10:57:15.355Z,20.06
2018-09-08T10:58:15.315Z,20.03
2018-09-08T10:59:15.300Z,20.04
2018-09-08T11:00:15.287Z,19.64
2018-09-08T11:01:15.277Z,19.63
2018-09-08T11:02:15.596Z,19.81
2018-09-08T11:03:15.279Z,19.88
2018-09-08T11:04:15.251Z,19.95
2018-09-08T11:05:15.240Z,20.06
2018-09-08T11:06:15.227Z,20.13
2018-09-08T11:07:15.216Z,19.91
2018-09-08T11:08:15.218Z,20.04
2018-09-08T11:09:15.194Z,19.94
2018-09-08T11:10:15.181Z,19.91
2018-09-08T11:11:15.173Z,19.94
2018-09-08T11:12:15.168Z,19.99
2018-09-08T11:13:15.164Z,19.99
2018-09-08T11:14:15.139Z,20.02
2018-09-08T11:15:15.130Z,20.22
2018-09-08T11:16:15.125Z,20.13
2018-09-08T11:17:15.112Z,20.22
2018-09-08T11:18:15.119Z,20.47
2018-09-08T11:19:15.085Z,20.65
2018-09-08T11:20:15.088Z,20.77
2018-09-08T11:21:15.062Z,20.75
2018-09-08T11:22:15.054Z,20.52
2018-09-08T11:23:15.075Z,20.26
2018-09-08T11:24:15.046Z,20.07
2018-09-08T11:25:15.035Z,19.88
2018-09-08T11:26:15.021Z,19.92
2018-09-08T11:27:15.003Z,19.76
2018-09-08T11:28:14.991Z,19.64
2018-09-08T11:29:15.021Z,19.56
2018-09-08T11:30:15.018Z,19.54
2018-09-08T11:31:14.964Z,19.44
2018-09-08T11:32:14.965Z,19.24
2018-09-08T11:33:14.938Z,19.04
2018-09-08T11:34:14.946Z,19.00
2018-09-08T11:35:14.922Z,19.30
2018-09-08T11:36:14.912Z,19.09
2018-09-08T11:37:14.902Z,19.39
2018-09-08T11:38:14.983Z,19.76
2018-09-08T11:39:14.899Z,19.58
2018-09-08T11:40:14.865Z,19.66
2018-09-08T11:41:14.852Z,19.91
2018-09-08T11:42:14.843Z,20.19
2018-09-08T11:43:14.839Z,20.43
2018-09-08T11:44:14.826Z,20.65
2018-09-08T11:45:14.827Z,20.92
2018-09-08T11:46:14.799Z,21.09
2018-09-08T11:47:14.791Z,21.18
2018-09-08T11:48:14.783Z,21.30
2018-09-08T11:49:14.772Z,20.70
2018-09-08T11:50:14.776Z,20.82
2018-09-08T11:51:14.752Z,21.21
2018-09-08T11:52:14.733Z,21.73
2018-09-08T11:53:14.723Z,21.99
2018-09-08T11:54:14.716Z,22.32
2018-09-08T11:55:14.727Z,22.43
2018-09-08T11:56:14.697Z,22.50
2018-09-08T11:57:14.686Z,22.57
2018-09-08T11:58:14.675Z,22.54
2018-09-08T11:59:14.684Z,22.54
2018-09-08T12:00:14.648Z,22.44
2018-09-08T12:01:14.659Z,22.39
2018-09-08T12:02:14.691Z,22.18
2018-09-08T12:03:14.618Z,22.18
2018-09-08T12:04:14.606Z,21.98
2018-09-08T12:05:14.599Z,22.02
2018-09-08T12:06:14.590Z,21.83
2018-09-08T12:07:14.580Z,21.29
2018-09-08T12:08:14.572Z,21.02
2018-09-08T12:09:14.563Z,20.69
2018-09-08T12:10:14.547Z,20.48
2018-09-08T12:11:14.542Z,20.96
2018-09-08T12:12:14.549Z,21.43
2018-09-08T12:13:14.557Z,21.95
2018-09-08T12:14:14.506Z,22.33
2018-09-08T12:15:14.493Z,22.57
2018-09-08T12:16:14.489Z,22.30
2018-09-08T12:17:14.467Z,22.53
2018-09-08T12:18:14.467Z,22.75
2018-09-08T12:19:14.472Z,22.65
2018-09-08T12:20:14.442Z,22.84
2018-09-08T12:21:14.457Z,22.57
2018-09-08T12:22:14.476Z,22.68
2018-09-08T12:23:14.405Z,23.02
2018-09-08T12:24:14.393Z,23.31
2018-09-08T12:25:14.383Z,23.69
2018-09-08T12:26:14.373Z,23.40
2018-09-08T12:27:14.372Z,23.15
2018-09-08T12:28:14.357Z,23.25
2018-09-08T12:29:14.347Z,23.32
2018-09-08T12:30:14.335Z,23.36
2018-09-08T12:31:14.325Z,23.40
2018-09-08T12:32:14.311Z,23.40
2018-09-08T12:33:14.325Z,23.48
2018-09-08T12:34:14.291Z,22.80
2018-09-08T12:35:14.279Z,22.33
2018-09-08T12:36:14.268Z,22.44
2018-09-08T12:37:14.319Z,22.83
2018-09-08T12:38:14.247Z,23.10
2018-09-08T12:39:14.236Z,23.02
2018-09-08T12:40:14.232Z,22.33
2018-09-08T12:41:14.215Z,21.27
2018-09-08T12:42:14.229Z,20.97
2018-09-08T12:43:14.191Z,21.61
2018-09-08T12:44:14.179Z,22.04
2018-09-08T12:45:14.168Z,22.23
2018-09-08T12:46:14.165Z,22.55
2018-09-08T12:47:14.152Z,21.93
2018-09-08T12:48:14.147Z,21.33
2018-09-08T12:49:14.126Z,20.87
2018-09-08T12:50:14.115Z,20.31
2018-09-08T12:51:14.111Z,20.09
2018-09-08T12:52:14.097Z,19.96